Station Historical Data
Daily Summary for February 19, 2017 Units:  English    Metric   Both
« Previous Day
Next Day »
Daily Weekly Monthly Yearly Custom
  High: Low: Average:
Temperature: 49.3 °F 29.1 °F 38.7 °F
Dew Point: 39.6 °F 26.8 °F 34.2 °F
Humidity: 92% 68% 84%
Wind Speed: 15.0mph 0.0mph 4.1mph
Wind Gust: 19.0mph - -
Wind- - SW
Pressure: 30.16 in 29.73 in -
Precipitation: 0.00 in    
Historical Graphs
 
 
Tabular Data for February 19, 2017
Time Temperature Dew Point Pressure Wind Wind Speed Wind Gust Humidity Rainfall Rate (Hourly)
00:04 37.9 °F 34.4 °F 29.73 in SW 4.0 mph 9.0 mph 87% 0.00 in
00:09 37.8 °F 34.0 °F 29.73 in SSW 4.0 mph 9.0 mph 86% 0.00 in
00:14 37.7 °F 34.2 °F 29.73 in SW 4.0 mph 9.0 mph 87% 0.00 in
00:19 37.9 °F 34.4 °F 29.73 in SW 6.0 mph 8.0 mph 87% 0.00 in
00:24 38.0 °F 34.5 °F 29.74 in SW 3.0 mph 9.0 mph 87% 0.00 in
00:29 38.2 °F 34.7 °F 29.74 in SW 4.0 mph 10.0 mph 87% 0.00 in
00:34 38.4 °F 34.9 °F 29.74 in WSW 7.0 mph 9.0 mph 87% 0.00 in
00:39 38.5 °F 35.0 °F 29.74 in SW 5.0 mph 8.0 mph 87% 0.00 in
00:44 38.7 °F 34.9 °F 29.74 in SW 4.0 mph 9.0 mph 86% 0.00 in
00:49 38.8 °F 35.0 °F 29.74 in SW 10.0 mph 11.0 mph 86% 0.00 in
00:54 39.0 °F 35.2 °F 29.74 in SW 6.0 mph 9.0 mph 86% 0.00 in
00:59 39.1 °F 35.3 °F 29.74 in SW 4.0 mph 10.0 mph 86% 0.00 in
01:05 39.1 °F 35.3 °F 29.74 in WSW 4.0 mph 8.0 mph 86% 0.00 in
01:10 39.1 °F 35.3 °F 29.74 in South 3.0 mph 10.0 mph 86% 0.00 in
01:15 39.2 °F 35.4 °F 29.74 in SSW 3.0 mph 9.0 mph 86% 0.00 in
01:20 39.3 °F 35.2 °F 29.74 in SW 4.0 mph 8.0 mph 85% 0.00 in
01:25 39.2 °F 35.1 °F 29.74 in SW 4.0 mph 8.0 mph 85% 0.00 in
01:30 39.3 °F 35.2 °F 29.75 in SW 4.0 mph 9.0 mph 85% 0.00 in
01:35 39.3 °F 35.2 °F 29.75 in SW 4.0 mph 9.0 mph 85% 0.00 in
01:40 39.3 °F 35.2 °F 29.75 in SW 4.0 mph 9.0 mph 85% 0.00 in
01:45 39.3 °F 35.2 °F 29.75 in SW 4.0 mph 9.0 mph 85% 0.00 in
01:50 39.1 °F 35.0 °F 29.75 in SW 3.0 mph 8.0 mph 85% 0.00 in
01:55 39.1 °F 35.0 °F 29.76 in SW 4.0 mph 9.0 mph 85% 0.00 in
02:00 39.0 °F 34.9 °F 29.76 in WSW 4.0 mph 11.0 mph 85% 0.00 in
02:05 38.9 °F 34.8 °F 29.76 in WSW 5.0 mph 11.0 mph 85% 0.00 in
02:10 38.8 °F 34.7 °F 29.76 in WSW 6.0 mph 9.0 mph 85% 0.00 in
02:15 38.8 °F 34.7 °F 29.76 in SW 2.0 mph 9.0 mph 85% 0.00 in
02:20 38.7 °F 34.9 °F 29.76 in SSW 2.0 mph 9.0 mph 86% 0.00 in
02:25 38.7 °F 34.9 °F 29.76 in SW 4.0 mph 9.0 mph 86% 0.00 in
02:30 38.8 °F 35.0 °F 29.76 in SW 4.0 mph 8.0 mph 86% 0.00 in
02:35 38.6 °F 34.8 °F 29.77 in SW 4.0 mph 8.0 mph 86% 0.00 in
02:40 38.4 °F 34.6 °F 29.77 in SW 1.0 mph 6.0 mph 86% 0.00 in
02:45 38.2 °F 34.4 °F 29.77 in SW 7.0 mph 7.0 mph 86% 0.00 in
02:50 38.1 °F 34.6 °F 29.77 in WSW 2.0 mph 7.0 mph 87% 0.00 in
02:55 38.1 °F 34.6 °F 29.77 in South 3.0 mph 6.0 mph 87% 0.00 in
03:00 38.1 °F 34.6 °F 29.77 in SW 3.0 mph 6.0 mph 87% 0.00 in
03:05 38.1 °F 34.6 °F 29.77 in SW 4.0 mph 9.0 mph 87% 0.00 in
03:10 38.0 °F 34.5 °F 29.77 in SW 4.0 mph 9.0 mph 87% 0.00 in
03:15 38.1 °F 34.6 °F 29.78 in SW 5.0 mph 8.0 mph 87% 0.00 in
03:20 38.1 °F 34.6 °F 29.78 in SW 6.0 mph 8.0 mph 87% 0.00 in
03:25 38.2 °F 34.7 °F 29.78 in SW 5.0 mph 12.0 mph 87% 0.00 in
03:30 38.1 °F 34.6 °F 29.78 in SW 8.0 mph 10.0 mph 87% 0.00 in
03:35 38.1 °F 34.6 °F 29.78 in SW 5.0 mph 10.0 mph 87% 0.00 in
03:40 38.0 °F 34.5 °F 29.78 in SW 5.0 mph 11.0 mph 87% 0.00 in
03:45 37.9 °F 34.4 °F 29.78 in SW 4.0 mph 11.0 mph 87% 0.00 in
03:50 37.7 °F 34.2 °F 29.78 in SW 3.0 mph 7.0 mph 87% 0.00 in
03:55 37.6 °F 34.4 °F 29.79 in West 3.0 mph 6.0 mph 88% 0.00 in
04:00 37.5 °F 34.3 °F 29.79 in SW 3.0 mph 9.0 mph 88% 0.00 in
04:05 37.5 °F 34.3 °F 29.79 in WSW 2.0 mph 6.0 mph 88% 0.00 in
04:10 37.3 °F 34.1 °F 29.79 in SW 3.0 mph 6.0 mph 88% 0.00 in
04:15 37.2 °F 34.0 °F 29.80 in SW 3.0 mph 7.0 mph 88% 0.00 in
04:19 37.1 °F 33.9 °F 29.80 in WSW 1.0 mph 4.0 mph 88% 0.00 in
04:25 36.8 °F 33.6 °F 29.80 in West 1.0 mph 4.0 mph 88% 0.00 in
04:30 36.8 °F 33.9 °F 29.80 in SW 3.0 mph 5.0 mph 89% 0.00 in
04:35 36.8 °F 33.9 °F 29.81 in WSW 1.0 mph 5.0 mph 89% 0.00 in
04:40 36.7 °F 33.8 °F 29.81 in WSW 2.0 mph 5.0 mph 89% 0.00 in
04:45 36.6 °F 33.7 °F 29.81 in SW 2.0 mph 6.0 mph 89% 0.00 in
04:50 36.4 °F 33.5 °F 29.81 in WSW 1.0 mph 4.0 mph 89% 0.00 in
04:55 36.1 °F 33.2 °F 29.81 in WSW 1.0 mph 2.0 mph 89% 0.00 in
05:00 35.9 °F 33.0 °F 29.81 in Calm   3.0 mph 89% 0.00 in
05:04 35.8 °F 32.9 °F 29.81 in SSW 1.0 mph 3.0 mph 89% 0.00 in
05:10 35.7 °F 33.1 °F 29.81 in SSW 2.0 mph 4.0 mph 90% 0.00 in
05:15 35.7 °F 33.1 °F 29.82 in SSW 2.0 mph 4.0 mph 90% 0.00 in
05:20 35.5 °F 32.9 °F 29.82 in SSW 2.0 mph 5.0 mph 90% 0.00 in
05:25 35.3 °F 32.7 °F 29.83 in SW 1.0 mph 5.0 mph 90% 0.00 in
05:30 35.4 °F 32.8 °F 29.83 in SW 1.0 mph 3.0 mph 90% 0.00 in
05:34 35.1 °F 32.5 °F 29.83 in SSW 2.0 mph 3.0 mph 90% 0.00 in
05:39 35.2 °F 32.6 °F 29.83 in SW 1.0 mph 4.0 mph 90% 0.00 in
05:45 35.1 °F 32.5 °F 29.83 in SSW 2.0 mph 5.0 mph 90% 0.00 in
05:50 35.1 °F 32.5 °F 29.83 in SW 2.0 mph 4.0 mph 90% 0.00 in
05:55 35.2 °F 32.6 °F 29.83 in SW 2.0 mph 4.0 mph 90% 0.00 in
06:00 35.1 °F 32.5 °F 29.84 in SW 1.0 mph 4.0 mph 90% 0.00 in
06:05 35.0 °F 32.4 °F 29.84 in SW 1.0 mph 5.0 mph 90% 0.00 in
06:10 34.8 °F 32.2 °F 29.84 in SW 1.0 mph 5.0 mph 90% 0.00 in
06:15 35.0 °F 32.6 °F 29.84 in SW 2.0 mph 4.0 mph 91% 0.00 in
06:20 35.0 °F 32.6 °F 29.84 in SSW 2.0 mph 4.0 mph 91% 0.00 in
06:25 35.1 °F 32.7 °F 29.84 in SSW 2.0 mph 4.0 mph 91% 0.00 in
06:30 35.1 °F 32.7 °F 29.84 in SSW 2.0 mph 6.0 mph 91% 0.00 in
06:34 35.2 °F 32.8 °F 29.85 in SW 3.0 mph 6.0 mph 91% 0.00 in
06:39 35.1 °F 32.7 °F 29.85 in SW 3.0 mph 4.0 mph 91% 0.00 in
06:44 34.9 °F 32.5 °F 29.85 in SSW 1.0 mph 5.0 mph 91% 0.00 in
06:49 34.8 °F 32.4 °F 29.85 in WSW 3.0 mph 5.0 mph 91% 0.00 in
06:55 34.8 °F 32.4 °F 29.85 in SW 6.0 mph 7.0 mph 91% 0.00 in
07:05 34.7 °F 32.3 °F 29.86 in SSW 4.0 mph 5.0 mph 91% 0.00 in
07:09 34.7 °F 32.3 °F 29.86 in SSW 3.0 mph 7.0 mph 91% 0.00 in
07:15 34.7 °F 32.3 °F 29.86 in SSW 3.0 mph 7.0 mph 91% 0.00 in
07:20 34.7 °F 32.3 °F 29.86 in SW 3.0 mph 5.0 mph 91% 0.00 in
07:25 34.6 °F 32.2 °F 29.86 in SSW 2.0 mph 5.0 mph 91% 0.00 in
07:35 34.8 °F 32.7 °F 29.87 in SW 3.0 mph 6.0 mph 92% 0.00 in
07:39 34.8 °F 32.7 °F 29.87 in SW 3.0 mph 6.0 mph 92% 0.00 in
07:45 35.1 °F 33.0 °F 29.88 in SW 3.0 mph 7.0 mph 92% 0.00 in
07:50 35.3 °F 33.2 °F 29.88 in SW 3.0 mph 7.0 mph 92% 0.00 in
07:54 35.6 °F 33.5 °F 29.89 in West 2.0 mph 6.0 mph 92% 0.00 in
07:59 35.9 °F 33.8 °F 29.89 in South 4.0 mph 5.0 mph 92% 0.00 in
08:04 36.2 °F 33.8 °F 29.89 in Calm   6.0 mph 91% 0.00 in
08:09 36.6 °F 34.2 °F 29.89 in SW 3.0 mph 8.0 mph 91% 0.00 in
08:14 37.0 °F 34.6 °F 29.89 in SW 4.0 mph 9.0 mph 91% 0.00 in
08:20 37.3 °F 34.9 °F 29.89 in SW 5.0 mph 7.0 mph 91% 0.00 in
08:25 37.8 °F 35.1 °F 29.90 in WSW 3.0 mph 8.0 mph 90% 0.00 in
08:30 38.2 °F 35.2 °F 29.90 in SW 4.0 mph 10.0 mph 89% 0.00 in
08:35 38.6 °F 35.4 °F 29.90 in SW 2.0 mph 7.0 mph 88% 0.00 in
08:39 39.0 °F 35.7 °F 29.90 in SW 4.0 mph 9.0 mph 88% 0.00 in
08:44 39.3 °F 35.8 °F 29.90 in SW 4.0 mph 9.0 mph 87% 0.00 in
08:50 39.7 °F 36.1 °F 29.90 in SW 4.0 mph 8.0 mph 87% 0.00 in
08:55 40.0 °F 36.2 °F 29.90 in WSW 4.0 mph 8.0 mph 86% 0.00 in
09:00 40.2 °F 36.1 °F 29.90 in SW 4.0 mph 9.0 mph 85% 0.00 in
09:04 40.0 °F 35.9 °F 29.90 in SSW 4.0 mph 9.0 mph 85% 0.00 in
09:09 40.2 °F 36.1 °F 29.90 in SW 4.0 mph 10.0 mph 85% 0.00 in
09:14 40.4 °F 35.9 °F 29.90 in SSW 3.0 mph 11.0 mph 84% 0.00 in
09:19 40.8 °F 36.3 °F 29.91 in SW 6.0 mph 9.0 mph 84% 0.00 in
09:24 40.9 °F 36.4 °F 29.91 in WSW 4.0 mph 11.0 mph 84% 0.00 in
09:29 41.3 °F 36.8 °F 29.91 in WNW 7.0 mph 11.0 mph 84% 0.00 in
09:34 41.2 °F 36.4 °F 29.91 in SW 8.0 mph 9.0 mph 83% 0.00 in
09:39 41.4 °F 36.6 °F 29.91 in SW 5.0 mph 9.0 mph 83% 0.00 in
09:44 41.8 °F 36.7 °F 29.91 in SW 5.0 mph 9.0 mph 82% 0.00 in
09:50 41.8 °F 36.7 °F 29.92 in SW 5.0 mph 10.0 mph 82% 0.00 in
09:55 41.9 °F 36.8 °F 29.92 in SW 6.0 mph 10.0 mph 82% 0.00 in
10:00 42.5 °F 37.1 °F 29.92 in SW 5.0 mph 9.0 mph 81% 0.00 in
10:05 42.6 °F 37.2 °F 29.92 in SW 5.0 mph 9.0 mph 81% 0.00 in
10:09 42.7 °F 37.3 °F 29.91 in SW 3.0 mph 10.0 mph 81% 0.00 in
10:14 42.7 °F 37.0 °F 29.92 in SW 2.0 mph 11.0 mph 80% 0.00 in
10:19 43.1 °F 37.3 °F 29.92 in South 5.0 mph 10.0 mph 80% 0.00 in
10:24 43.1 °F 37.3 °F 29.92 in SW 6.0 mph 10.0 mph 80% 0.00 in
10:29 43.0 °F 37.3 °F 29.92 in South 4.0 mph 11.0 mph 80% 0.00 in
10:34 43.0 °F 37.3 °F 29.92 in SW 6.0 mph 12.0 mph 80% 0.00 in
10:39 43.2 °F 37.4 °F 29.92 in SSW 7.0 mph 11.0 mph 80% 0.00 in
10:44 44.1 °F 38.0 °F 29.93 in SW 6.0 mph 11.0 mph 79% 0.00 in
10:49 44.0 °F 37.6 °F 29.93 in WSW 6.0 mph 11.0 mph 78% 0.00 in
10:54 44.0 °F 37.6 °F 29.93 in SW 7.0 mph 12.0 mph 78% 0.00 in
11:00 43.9 °F 37.5 °F 29.93 in SW 7.0 mph 13.0 mph 78% 0.00 in
11:05 43.9 °F 37.5 °F 29.93 in SW 4.0 mph 12.0 mph 78% 0.00 in
11:10 44.3 °F 37.9 °F 29.93 in West 5.0 mph 11.0 mph 78% 0.00 in
11:14 44.4 °F 38.3 °F 29.93 in South 9.0 mph 13.0 mph 79% 0.00 in
11:19 44.6 °F 37.8 °F 29.94 in WSW 8.0 mph 11.0 mph 77% 0.00 in
11:24 45.2 °F 38.1 °F 29.93 in WSW 9.0 mph 10.0 mph 76% 0.00 in
11:29 45.1 °F 38.3 °F 29.93 in WSW 6.0 mph 13.0 mph 77% 0.00 in
11:34 45.1 °F 38.0 °F 29.94 in SW 7.0 mph 13.0 mph 76% 0.00 in
11:39 45.1 °F 38.0 °F 29.93 in WSW 9.0 mph 13.0 mph 76% 0.00 in
11:44 45.0 °F 37.9 °F 29.93 in SW 8.0 mph 14.0 mph 76% 0.00 in
11:49 45.3 °F 38.2 °F 29.93 in SW 9.0 mph 14.0 mph 76% 0.00 in
11:54 45.2 °F 38.1 °F 29.93 in SW 8.0 mph 15.0 mph 76% 0.00 in
11:59 45.4 °F 38.3 °F 29.93 in SW 8.0 mph 15.0 mph 76% 0.00 in
12:05 45.8 °F 38.7 °F 29.92 in SW 8.0 mph 17.0 mph 76% 0.00 in
12:10 46.0 °F 38.5 °F 29.92 in SSE 6.0 mph 13.0 mph 75% 0.00 in
12:15 46.1 °F 39.0 °F 29.92 in SW 5.0 mph 15.0 mph 76% 0.00 in
12:19 46.1 °F 38.6 °F 29.92 in WSW 8.0 mph 15.0 mph 75% 0.00 in
12:24 46.7 °F 38.9 °F 29.92 in WSW 15.0 mph 15.0 mph 74% 0.00 in
12:29 46.6 °F 39.1 °F 29.92 in WSW 8.0 mph 13.0 mph 75% 0.00 in
12:34 46.5 °F 38.3 °F 29.92 in West 9.0 mph 13.0 mph 73% 0.00 in
12:39 46.3 °F 38.1 °F 29.93 in SW 9.0 mph 17.0 mph 73% 0.00 in
12:44 45.9 °F 38.1 °F 29.92 in WSW 13.0 mph 19.0 mph 74% 0.00 in
12:49 46.0 °F 38.2 °F 29.93 in WSW 10.0 mph 19.0 mph 74% 0.00 in
12:54 46.3 °F 38.8 °F 29.93 in WSW 10.0 mph 17.0 mph 75% 0.00 in
13:04 47.0 °F 38.4 °F 29.93 in WSW 9.0 mph 16.0 mph 72% 0.00 in
13:09 46.8 °F 38.9 °F 29.93 in WSW 9.0 mph 16.0 mph 74% 0.00 in
13:15 46.8 °F 38.6 °F 29.93 in WSW 9.0 mph 16.0 mph 73% 0.00 in
13:20 46.7 °F 38.5 °F 29.93 in SW 9.0 mph 15.0 mph 73% 0.00 in
13:24 46.7 °F 38.9 °F 29.93 in SW 9.0 mph 16.0 mph 74% 0.00 in
13:29 46.5 °F 38.3 °F 29.93 in WSW 13.0 mph 15.0 mph 73% 0.00 in
13:34 47.3 °F 38.7 °F 29.93 in SW 12.0 mph 14.0 mph 72% 0.00 in
13:39 46.9 °F 38.3 °F 29.93 in WSW 11.0 mph 17.0 mph 72% 0.00 in
13:44 47.4 °F 38.5 °F 29.93 in WSW 9.0 mph 14.0 mph 71% 0.00 in
13:49 47.7 °F 38.8 °F 29.94 in WSW 9.0 mph 14.0 mph 71% 0.00 in
13:54 48.1 °F 38.8 °F 29.94 in SW 13.0 mph 17.0 mph 70% 0.00 in
13:59 48.5 °F 39.2 °F 29.94 in SW 8.0 mph 17.0 mph 70% 0.00 in
14:04 48.2 °F 38.9 °F 29.94 in SW 9.0 mph 16.0 mph 70% 0.00 in
14:09 48.3 °F 38.6 °F 29.94 in WSW 9.0 mph 18.0 mph 69% 0.00 in
14:14 48.2 °F 38.9 °F 29.94 in WSW 9.0 mph 18.0 mph 70% 0.00 in
14:19 48.6 °F 38.9 °F 29.94 in WSW 10.0 mph 18.0 mph 69% 0.00 in
14:25 48.0 °F 38.3 °F 29.94 in SSW 9.0 mph 17.0 mph 69% 0.00 in
14:29 48.6 °F 38.9 °F 29.93 in WSW 10.0 mph 17.0 mph 69% 0.00 in
14:34 49.3 °F 39.6 °F 29.93 in West 11.0 mph 15.0 mph 69% 0.00 in
14:39 48.9 °F 38.8 °F 29.94 in SW 8.0 mph 16.0 mph 68% 0.00 in
14:44 48.6 °F 38.9 °F 29.94 in South 8.0 mph 19.0 mph 69% 0.00 in
14:49 47.9 °F 38.6 °F 29.94 in SW 5.0 mph 18.0 mph 70% 0.00 in
14:54 47.5 °F 38.2 °F 29.94 in SW 5.0 mph 17.0 mph 70% 0.00 in
14:59 46.9 °F 38.0 °F 29.94 in WSW 6.0 mph 16.0 mph 71% 0.00 in
15:04 47.0 °F 38.4 °F 29.94 in WSW 9.0 mph 17.0 mph 72% 0.00 in
15:09 47.1 °F 38.2 °F 29.95 in WSW 9.0 mph 17.0 mph 71% 0.00 in
15:14 46.9 °F 38.0 °F 29.95 in WSW 7.0 mph 16.0 mph 71% 0.00 in
15:19 46.3 °F 37.8 °F 29.95 in West 6.0 mph 14.0 mph 72% 0.00 in
15:24 46.0 °F 37.8 °F 29.96 in WSW 8.0 mph 19.0 mph 73% 0.00 in
15:29 45.7 °F 37.5 °F 29.96 in SW 10.0 mph 17.0 mph 73% 0.00 in
15:34 45.4 °F 37.2 °F 29.97 in SSW 3.0 mph 15.0 mph 73% 0.00 in
15:39 45.0 °F 37.2 °F 29.97 in WSW 8.0 mph 16.0 mph 74% 0.00 in
15:44 44.7 °F 36.9 °F 29.97 in WSW 9.0 mph 16.0 mph 74% 0.00 in
15:49 44.5 °F 37.1 °F 29.97 in WSW 9.0 mph 16.0 mph 75% 0.00 in
15:54 44.1 °F 36.7 °F 29.98 in SW 13.0 mph 18.0 mph 75% 0.00 in
15:59 43.5 °F 36.4 °F 29.98 in SSE 5.0 mph 17.0 mph 76% 0.00 in
16:04 43.2 °F 36.5 °F 29.98 in West 5.0 mph 17.0 mph 77% 0.00 in
16:09 43.1 °F 36.0 °F 29.98 in WSW 8.0 mph 17.0 mph 76% 0.00 in
16:14 43.0 °F 36.3 °F 29.98 in WSW 8.0 mph 15.0 mph 77% 0.00 in
16:19 43.0 °F 36.3 °F 29.98 in WSW 8.0 mph 16.0 mph 77% 0.00 in
16:24 42.9 °F 36.2 °F 29.98 in WSW 8.0 mph 16.0 mph 77% 0.00 in
16:29 42.6 °F 35.9 °F 29.98 in WSW 7.0 mph 16.0 mph 77% 0.00 in
16:34 42.4 °F 36.0 °F 29.98 in SW 11.0 mph 15.0 mph 78% 0.00 in
16:39 42.2 °F 35.8 °F 29.99 in WSW 9.0 mph 14.0 mph 78% 0.00 in
16:44 42.2 °F 35.8 °F 29.99 in WSW 8.0 mph 14.0 mph 78% 0.00 in
16:54 41.4 °F 35.4 °F 30.00 in WSW 8.0 mph 15.0 mph 79% 0.00 in
16:59 41.2 °F 35.2 °F 30.00 in WSW 8.0 mph 15.0 mph 79% 0.00 in
17:04 40.8 °F 35.1 °F 30.00 in WSW 3.0 mph 12.0 mph 80% 0.00 in
17:09 40.5 °F 35.1 °F 30.01 in SSW 7.0 mph 11.0 mph 81% 0.00 in
17:14 40.3 °F 34.9 °F 30.01 in WSW 8.0 mph 14.0 mph 81% 0.00 in
17:19 40.1 °F 34.7 °F 30.01 in WSW 7.0 mph 14.0 mph 81% 0.00 in
17:24 39.8 °F 34.4 °F 30.02 in WSW 6.0 mph 14.0 mph 81% 0.00 in
17:29 39.6 °F 34.6 °F 30.02 in WSW 5.0 mph 10.0 mph 82% 0.00 in
17:34 39.3 °F 34.3 °F 30.02 in WSW 5.0 mph 10.0 mph 82% 0.00 in
17:39 39.1 °F 34.1 °F 30.02 in SW 4.0 mph 6.0 mph 82% 0.00 in
17:44 38.8 °F 34.1 °F 30.03 in SSW 3.0 mph 6.0 mph 83% 0.00 in
17:49 38.6 °F 33.9 °F 30.03 in SW 1.0 mph 6.0 mph 83% 0.00 in
17:54 38.4 °F 34.0 °F 30.03 in SW 3.0 mph 6.0 mph 84% 0.00 in
17:59 38.2 °F 33.8 °F 30.03 in SW 3.0 mph 6.0 mph 84% 0.00 in
18:04 37.9 °F 33.5 °F 30.04 in SW 2.0 mph 5.0 mph 84% 0.00 in
18:09 37.7 °F 33.6 °F 30.04 in WSW 3.0 mph 7.0 mph 85% 0.00 in
18:14 37.6 °F 33.5 °F 30.04 in SW 1.0 mph 6.0 mph 85% 0.00 in
18:19 37.4 °F 33.3 °F 30.05 in SW 2.0 mph 6.0 mph 85% 0.00 in
18:24 37.2 °F 33.4 °F 30.05 in SW 3.0 mph 5.0 mph 86% 0.00 in
18:29 36.9 °F 33.1 °F 30.05 in SW 2.0 mph 5.0 mph 86% 0.00 in
18:34 36.8 °F 33.0 °F 30.06 in SW 2.0 mph 5.0 mph 86% 0.00 in
18:39 36.7 °F 33.2 °F 30.06 in SW 2.0 mph 4.0 mph 87% 0.00 in
18:44 36.6 °F 33.1 °F 30.06 in WSW 2.0 mph 5.0 mph 87% 0.00 in
18:49 36.4 °F 32.9 °F 30.06 in SW 3.0 mph 5.0 mph 87% 0.00 in
18:54 36.4 °F 32.9 °F 30.06 in SW 2.0 mph 4.0 mph 87% 0.00 in
18:59 36.2 °F 32.7 °F 30.07 in Calm   2.0 mph 87% 0.00 in
19:04 36.0 °F 32.5 °F 30.07 in SW 1.0 mph 4.0 mph 87% 0.00 in
19:09 35.8 °F 32.6 °F 30.08 in SW 1.0 mph 4.0 mph 88% 0.00 in
19:14 35.8 °F 32.6 °F 30.08 in Calm   3.0 mph 88% 0.00 in
19:19 35.5 °F 32.3 °F 30.08 in SW 1.0 mph 2.0 mph 88% 0.00 in
19:24 35.3 °F 32.1 °F 30.08 in Calm   2.0 mph 88% 0.00 in
19:29 35.1 °F 31.9 °F 30.08 in SW 2.0 mph 3.0 mph 88% 0.00 in
19:34 35.1 °F 32.2 °F 30.08 in SW 2.0 mph 4.0 mph 89% 0.00 in
19:39 34.8 °F 31.9 °F 30.09 in SW 2.0 mph 4.0 mph 89% 0.00 in
19:44 34.6 °F 31.7 °F 30.09 in SW 1.0 mph 2.0 mph 89% 0.00 in
19:49 34.4 °F 31.5 °F 30.09 in Calm   2.0 mph 89% 0.00 in
19:54 34.3 °F 31.4 °F 30.09 in Calm     89% 0.00 in
19:59 34.1 °F 31.2 °F 30.10 in Calm     89% 0.00 in
20:04 34.0 °F 31.1 °F 30.10 in Calm     89% 0.00 in
20:09 33.8 °F 31.2 °F 30.10 in Calm     90% 0.00 in
20:14 33.5 °F 30.9 °F 30.10 in Calm     90% 0.00 in
20:19 33.5 °F 30.9 °F 30.10 in Calm     90% 0.00 in
20:24 33.5 °F 30.9 °F 30.10 in Calm     90% 0.00 in
20:29 33.4 °F 30.8 °F 30.10 in Calm     90% 0.00 in
20:34 33.0 °F 30.4 °F 30.10 in Calm     90% 0.00 in
20:39 32.8 °F 30.2 °F 30.11 in Calm     90% 0.00 in
20:44 32.5 °F 29.9 °F 30.11 in Calm     90% 0.00 in
20:49 32.3 °F 29.7 °F 30.11 in Calm     90% 0.00 in
20:54 32.2 °F 29.9 °F 30.11 in Calm     91% 0.00 in
20:59 32.0 °F 29.4 °F 30.12 in Calm     90% 0.00 in
21:04 31.9 °F 29.6 °F 30.12 in Calm     91% 0.00 in
21:09 31.7 °F 29.4 °F 30.12 in Calm     91% 0.00 in
21:14 31.6 °F 29.3 °F 30.12 in Calm     91% 0.00 in
21:19 31.4 °F 29.1 °F 30.12 in Calm     91% 0.00 in
21:24 31.2 °F 28.9 °F 30.12 in Calm     91% 0.00 in
21:29 31.4 °F 29.1 °F 30.12 in Calm     91% 0.00 in
21:34 31.5 °F 29.2 °F 30.12 in Calm     91% 0.00 in
21:39 31.4 °F 29.1 °F 30.12 in Calm     91% 0.00 in
21:44 31.4 °F 29.1 °F 30.12 in Calm     91% 0.00 in
21:49 31.1 °F 28.8 °F 30.12 in Calm     91% 0.00 in
21:54 31.1 °F 28.8 °F 30.13 in Calm     91% 0.00 in
21:59 30.9 °F 28.6 °F 30.13 in Calm     91% 0.00 in
22:04 30.8 °F 28.5 °F 30.13 in Calm     91% 0.00 in
22:09 30.8 °F 28.5 °F 30.13 in Calm     91% 0.00 in
22:14 30.5 °F 28.2 °F 30.14 in Calm     91% 0.00 in
22:19 30.4 °F 28.1 °F 30.14 in Calm     91% 0.00 in
22:24 30.2 °F 27.9 °F 30.14 in Calm     91% 0.00 in
22:29 30.3 °F 28.0 °F 30.15 in Calm     91% 0.00 in
22:34 30.3 °F 28.0 °F 30.15 in Calm     91% 0.00 in
22:39 30.2 °F 27.9 °F 30.15 in Calm     91% 0.00 in
22:44 30.3 °F 28.0 °F 30.15 in Calm   3.0 mph 91% 0.00 in
22:49 30.7 °F 28.4 °F 30.15 in Calm   3.0 mph 91% 0.00 in
22:54 30.5 °F 28.2 °F 30.15 in SW 1.0 mph 3.0 mph 91% 0.00 in
22:59 30.3 °F 28.0 °F 30.16 in Calm     91% 0.00 in
23:04 29.9 °F 27.6 °F 30.15 in Calm     91% 0.00 in
23:09 29.7 °F 27.4 °F 30.16 in Calm     91% 0.00 in
23:14 29.7 °F 27.7 °F 30.16 in Calm     92% 0.00 in
23:19 29.7 °F 27.4 °F 30.16 in Calm     91% 0.00 in
23:24 29.7 °F 27.7 °F 30.16 in Calm     92% 0.00 in
23:29 29.3 °F 27.0 °F 30.16 in Calm   2.0 mph 91% 0.00 in
23:34 29.2 °F 26.9 °F 30.16 in Calm   2.0 mph 91% 0.00 in
23:39 29.1 °F 27.1 °F 30.16 in Calm     92% 0.00 in
23:44 29.1 °F 27.1 °F 30.16 in Calm     92% 0.00 in
23:49 29.1 °F 26.8 °F 30.16 in Calm     91% 0.00 in
23:54 29.3 °F 27.3 °F 30.16 in Calm     92% 0.00 in
23:59 29.7 °F 27.7 °F 30.16 in Calm     92% 0.00 in
Buffalo, New York, USA
Compliments of Weather Underground - 2.5 mb